sensor_id;sensor_type;location;lat;lon;timestamp;pressure;altitude;pressure_sealevel;temperature;humidity
45357;BME280;31092;51.924;21.448;2024-02-23T00:02:15;97890.28;;;7.70;100.00
45357;BME280;31092;51.924;21.448;2024-02-23T00:04:41;97901.41;;;7.73;100.00
45357;BME280;31092;51.924;21.448;2024-02-23T00:07:07;97901.41;;;7.66;100.00
45357;BME280;31092;51.924;21.448;2024-02-23T00:09:33;97817.28;;;7.21;100.00
45357;BME280;31092;51.924;21.448;2024-02-23T00:11:59;97912.16;;;7.80;100.00
45357;BME280;31092;51.924;21.448;2024-02-23T00:14:25;97893.38;;;7.73;100.00
45357;BME280;31092;51.924;21.448;2024-02-23T00:16:50;97824.94;;;7.31;100.00
45357;BME280;31092;51.924;21.448;2024-02-23T00:19:16;97870.72;;;7.62;100.00
45357;BME280;31092;51.924;21.448;2024-02-23T00:21:44;97872.75;;;7.67;100.00
45357;BME280;31092;51.924;21.448;2024-02-23T00:24:13;97826.16;;;7.35;100.00
45357;BME280;31092;51.924;21.448;2024-02-23T00:26:38;97804.53;;;7.23;100.00
45357;BME280;31092;51.924;21.448;2024-02-23T00:29:04;97801.88;;;7.23;100.00
45357;BME280;31092;51.924;21.448;2024-02-23T00:31:30;97861.63;;;7.57;100.00
45357;BME280;31092;51.924;21.448;2024-02-23T00:33:55;97801.88;;;7.23;100.00
45357;BME280;31092;51.924;21.448;2024-02-23T00:36:21;97871.13;;;7.66;100.00
45357;BME280;31092;51.924;21.448;2024-02-23T00:38:47;97782.88;;;7.11;100.00
45357;BME280;31092;51.924;21.448;2024-02-23T00:41:12;97865.34;;;7.62;100.00
45357;BME280;31092;51.924;21.448;2024-02-23T00:43:39;97865.34;;;7.62;100.00
45357;BME280;31092;51.924;21.448;2024-02-23T00:46:04;97863.91;;;7.66;100.00
45357;BME280;31092;51.924;21.448;2024-02-23T00:48:30;97845.16;;;7.60;100.00
45357;BME280;31092;51.924;21.448;2024-02-23T00:50:56;97856.28;;;7.63;100.00
45357;BME280;31092;51.924;21.448;2024-02-23T00:53:21;97841.84;;;7.51;100.00
45357;BME280;31092;51.924;21.448;2024-02-23T00:55:47;97853.81;;;7.62;100.00
45357;BME280;31092;51.924;21.448;2024-02-23T00:58:13;97830.75;;;7.54;100.00
45357;BME280;31092;51.924;21.448;2024-02-23T01:00:40;97827.22;;;7.54;100.00
45357;BME280;31092;51.924;21.448;2024-02-23T01:03:07;97773.44;;;7.22;100.00
45357;BME280;31092;51.924;21.448;2024-02-23T01:05:32;97829.28;;;7.58;100.00
45357;BME280;31092;51.924;21.448;2024-02-23T01:07:58;97839.38;;;7.70;100.00
45357;BME280;31092;51.924;21.448;2024-02-23T01:10:24;97807.66;;;7.60;100.00
45357;BME280;31092;51.924;21.448;2024-02-23T01:12:49;97816.91;;;7.64;100.00
45357;BME280;31092;51.924;21.448;2024-02-23T01:15:15;97819.41;;;7.72;100.00
45357;BME280;31092;51.924;21.448;2024-02-23T01:17:40;97827.41;;;7.79;100.00
45357;BME280;31092;51.924;21.448;2024-02-23T01:20:06;97814.22;;;7.71;100.00
45357;BME280;31092;51.924;21.448;2024-02-23T01:22:32;97827.41;;;7.79;100.00
45357;BME280;31092;51.924;21.448;2024-02-23T01:24:58;97750.16;;;7.36;100.00
45357;BME280;31092;51.924;21.448;2024-02-23T01:27:23;97784.34;;;7.60;100.00
45357;BME280;31092;51.924;21.448;2024-02-23T01:29:49;97760.69;;;7.51;100.00
45357;BME280;31092;51.924;21.448;2024-02-23T01:32:14;97785.41;;;7.73;100.00
45357;BME280;31092;51.924;21.448;2024-02-23T01:34:40;97796.72;;;7.75;100.00
45357;BME280;31092;51.924;21.448;2024-02-23T01:37:06;97804.13;;;7.86;100.00
45357;BME280;31092;51.924;21.448;2024-02-23T01:39:31;97715.34;;;7.36;100.00
45357;BME280;31092;51.924;21.448;2024-02-23T01:41:57;97774.88;;;7.78;100.00
45357;BME280;31092;51.924;21.448;2024-02-23T01:44:22;97766.84;;;7.71;100.00
45357;BME280;31092;51.924;21.448;2024-02-23T01:46:49;97784.34;;;7.87;100.00
45357;BME280;31092;51.924;21.448;2024-02-23T01:49:15;97707.31;;;7.42;100.00
45357;BME280;31092;51.924;21.448;2024-02-23T01:51:41;97764.56;;;7.81;100.00
45357;BME280;31092;51.924;21.448;2024-02-23T01:54:08;97787.63;;;7.96;100.00
45357;BME280;31092;51.924;21.448;2024-02-23T01:56:35;97745.63;;;7.70;100.00
45357;BME280;31092;51.924;21.448;2024-02-23T01:59:02;97686.53;;;7.38;100.00
45357;BME280;31092;51.924;21.448;2024-02-23T02:01:31;97717.81;;;7.57;100.00
45357;BME280;31092;51.924;21.448;2024-02-23T02:03:57;97785.34;;;7.99;100.00
45357;BME280;31092;51.924;21.448;2024-02-23T02:06:24;97781.44;;;7.95;100.00
45357;BME280;31092;51.924;21.448;2024-02-23T02:08:50;97697.44;;;7.43;100.00
45357;BME280;31092;51.924;21.448;2024-02-23T02:11:16;97697.25;;;7.44;100.00
45357;BME280;31092;51.924;21.448;2024-02-23T02:13:41;97767.63;;;7.91;100.00
45357;BME280;31092;51.924;21.448;2024-02-23T02:16:07;97709.16;;;7.55;100.00
45357;BME280;31092;51.924;21.448;2024-02-23T02:18:33;97768.03;;;7.88;100.00
45357;BME280;31092;51.924;21.448;2024-02-23T02:20:59;97703.19;;;7.60;100.00
45357;BME280;31092;51.924;21.448;2024-02-23T02:23:25;97767.81;;;8.03;100.00
45357;BME280;31092;51.924;21.448;2024-02-23T02:25:55;97784.69;;;8.17;100.00
45357;BME280;31092;51.924;21.448;2024-02-23T02:28:22;97745.53;;;8.03;100.00
45357;BME280;31092;51.924;21.448;2024-02-23T02:30:52;97741.63;;;7.99;100.00
45357;BME280;31092;51.924;21.448;2024-02-23T02:33:21;97688.97;;;7.66;100.00
45357;BME280;31092;51.924;21.448;2024-02-23T02:35:47;97760.16;;;8.13;100.00
45357;BME280;31092;51.924;21.448;2024-02-23T02:38:12;97691.81;;;7.71;100.00
45357;BME280;31092;51.924;21.448;2024-02-23T02:40:38;97722.50;;;7.88;100.00
45357;BME280;31092;51.924;21.448;2024-02-23T02:43:04;97684.59;;;7.72;100.00
45357;BME280;31092;51.924;21.448;2024-02-23T02:45:31;97692.03;;;7.83;100.00
45357;BME280;31092;51.924;21.448;2024-02-23T02:47:56;97673.28;;;7.70;100.00
45357;BME280;31092;51.924;21.448;2024-02-23T02:50:22;97766.06;;;8.29;100.00
45357;BME280;31092;51.924;21.448;2024-02-23T02:52:48;97701.47;;;7.92;100.00
45357;BME280;31092;51.924;21.448;2024-02-23T02:55:14;97754.75;;;8.27;100.00
45357;BME280;31092;51.924;21.448;2024-02-23T02:57:39;97782.56;;;8.39;100.00
45357;BME280;31092;51.924;21.448;2024-02-23T03:00:09;97787.53;;;8.42;100.00
45357;BME280;31092;51.924;21.448;2024-02-23T03:02:35;97693.41;;;7.92;100.00
45357;BME280;31092;51.924;21.448;2024-02-23T03:05:00;97780.09;;;8.44;100.00
45357;BME280;31092;51.924;21.448;2024-02-23T03:07:26;97773.50;;;8.33;100.00
45357;BME280;31092;51.924;21.448;2024-02-23T03:09:52;97773.28;;;8.42;100.00
45357;BME280;31092;51.924;21.448;2024-02-23T03:12:18;97727.56;;;8.16;100.00
45357;BME280;31092;51.924;21.448;2024-02-23T03:14:44;97775.78;;;8.43;100.00
45357;BME280;31092;51.924;21.448;2024-02-23T03:17:09;97716.66;;;8.11;100.00
45357;BME280;31092;51.924;21.448;2024-02-23T03:19:36;97788.31;;;8.56;100.00
45357;BME280;31092;51.924;21.448;2024-02-23T03:22:01;97752.06;;;8.40;100.00
45357;BME280;31092;51.924;21.448;2024-02-23T03:24:27;97710.25;;;8.12;100.00
45357;BME280;31092;51.924;21.448;2024-02-23T03:26:53;97783.97;;;8.55;100.00
45357;BME280;31092;51.924;21.448;2024-02-23T03:29:18;97720.78;;;8.07;100.00
45357;BME280;31092;51.924;21.448;2024-02-23T03:31:44;97779.06;;;8.32;100.00
45357;BME280;31092;51.924;21.448;2024-02-23T03:34:10;97706.63;;;7.87;100.00
45357;BME280;31092;51.924;21.448;2024-02-23T03:36:36;97792.47;;;8.32;100.00
45357;BME280;31092;51.924;21.448;2024-02-23T03:39:02;97791.25;;;8.21;100.00
45357;BME280;31092;51.924;21.448;2024-02-23T03:41:28;97783.88;;;8.10;100.00
45357;BME280;31092;51.924;21.448;2024-02-23T03:43:53;97699.28;;;7.49;100.00
45357;BME280;31092;51.924;21.448;2024-02-23T03:46:19;97796.06;;;7.99;100.00
45357;BME280;31092;51.924;21.448;2024-02-23T03:48:45;97728.34;;;7.52;100.00
45357;BME280;31092;51.924;21.448;2024-02-23T03:51:12;97788.03;;;7.86;100.00
45357;BME280;31092;51.924;21.448;2024-02-23T03:53:37;97788.06;;;7.79;100.00
45357;BME280;31092;51.924;21.448;2024-02-23T03:56:03;97703.41;;;7.32;100.00
45357;BME280;31092;51.924;21.448;2024-02-23T03:58:29;97772.81;;;7.66;100.00
45357;BME280;31092;51.924;21.448;2024-02-23T04:00:55;97693.75;;;7.11;100.00
45357;BME280;31092;51.924;21.448;2024-02-23T04:03:20;97691.69;;;7.06;100.00
45357;BME280;31092;51.924;21.448;2024-02-23T04:05:46;97760.88;;;7.42;100.00
45357;BME280;31092;51.924;21.448;2024-02-23T04:08:12;97765.81;;;7.52;100.00
45357;BME280;31092;51.924;21.448;2024-02-23T04:10:38;97785.22;;;7.54;100.00
45357;BME280;31092;51.924;21.448;2024-02-23T04:13:04;97677.06;;;6.95;100.00
45357;BME280;31092;51.924;21.448;2024-02-23T04:15:29;97761.09;;;7.48;100.00
45357;BME280;31092;51.924;21.448;2024-02-23T04:17:55;97659.38;;;6.88;100.00
45357;BME280;31092;51.924;21.448;2024-02-23T04:20:21;97728.97;;;7.34;100.00
45357;BME280;31092;51.924;21.448;2024-02-23T04:22:46;97691.47;;;7.08;100.00
45357;BME280;31092;51.924;21.448;2024-02-23T04:25:12;97653.81;;;6.83;100.00
45357;BME280;31092;51.924;21.448;2024-02-23T04:27:37;97738.44;;;7.37;100.00
45357;BME280;31092;51.924;21.448;2024-02-23T04:30:04;97633.63;;;6.67;100.00
45357;BME280;31092;51.924;21.448;2024-02-23T04:32:29;97664.91;;;6.86;100.00
45357;BME280;31092;51.924;21.448;2024-02-23T04:34:56;97680.38;;;6.98;100.00
45357;BME280;31092;51.924;21.448;2024-02-23T04:37:21;97728.13;;;7.27;100.00
45357;BME280;31092;51.924;21.448;2024-02-23T04:39:47;97684.06;;;6.96;100.00
45357;BME280;31092;51.924;21.448;2024-02-23T04:42:13;97723.19;;;7.24;100.00
45357;BME280;31092;51.924;21.448;2024-02-23T04:44:41;97724.00;;;7.25;100.00
45357;BME280;31092;51.924;21.448;2024-02-23T04:47:07;97722.16;;;7.25;100.00
45357;BME280;31092;51.924;21.448;2024-02-23T04:49:32;97640.44;;;6.69;100.00
45357;BME280;31092;51.924;21.448;2024-02-23T04:51:58;97717.63;;;7.26;100.00
45357;BME280;31092;51.924;21.448;2024-02-23T04:54:24;97713.72;;;7.22;100.00
45357;BME280;31092;51.924;21.448;2024-02-23T04:56:49;97641.03;;;6.78;100.00
45357;BME280;31092;51.924;21.448;2024-02-23T04:59:15;97634.69;;;6.72;100.00
45357;BME280;31092;51.924;21.448;2024-02-23T05:01:41;97686.13;;;7.08;100.00
45357;BME280;31092;51.924;21.448;2024-02-23T05:04:08;97708.59;;;7.20;100.00
45357;BME280;31092;51.924;21.448;2024-02-23T05:06:33;97686.13;;;7.08;100.00
45357;BME280;31092;51.924;21.448;2024-02-23T05:09:01;97701.19;;;7.15;100.00
45357;BME280;31092;51.924;21.448;2024-02-23T05:11:26;97614.09;;;6.66;100.00
45357;BME280;31092;51.924;21.448;2024-02-23T05:13:52;97626.03;;;6.70;100.00
45357;BME280;31092;51.924;21.448;2024-02-23T05:16:18;97615.34;;;6.70;100.00
45357;BME280;31092;51.924;21.448;2024-02-23T05:18:43;97700.31;;;7.15;100.00
45357;BME280;31092;51.924;21.448;2024-02-23T05:21:12;97714.94;;;7.26;100.00
45357;BME280;31092;51.924;21.448;2024-02-23T05:23:38;97709.19;;;7.22;100.00
45357;BME280;31092;51.924;21.448;2024-02-23T05:26:03;97623.34;;;6.70;100.00
45357;BME280;31092;51.924;21.448;2024-02-23T05:28:29;97702.00;;;7.16;100.00
45357;BME280;31092;51.924;21.448;2024-02-23T05:30:54;97709.63;;;7.12;100.00
45357;BME280;31092;51.924;21.448;2024-02-23T05:33:21;97691.47;;;7.08;100.00
45357;BME280;31092;51.924;21.448;2024-02-23T05:35:47;97631.38;;;6.70;100.00
45357;BME280;31092;51.924;21.448;2024-02-23T05:38:16;97624.16;;;6.64;100.00
45357;BME280;31092;51.924;21.448;2024-02-23T05:40:42;97631.19;;;6.65;100.00
45357;BME280;31092;51.924;21.448;2024-02-23T05:43:08;97619.03;;;6.56;100.00
45357;BME280;31092;51.924;21.448;2024-02-23T05:45:34;97695.00;;;7.02;100.00
45357;BME280;31092;51.924;21.448;2024-02-23T05:47:59;97585.69;;;6.45;100.00
45357;BME280;31092;51.924;21.448;2024-02-23T05:50:25;97649.91;;;6.79;100.00
45357;BME280;31092;51.924;21.448;2024-02-23T05:52:51;97705.06;;;7.13;100.00
45357;BME280;31092;51.924;21.448;2024-02-23T05:55:18;97702.59;;;7.11;100.00
45357;BME280;31092;51.924;21.448;2024-02-23T05:57:44;97696.81;;;7.08;100.00
45357;BME280;31092;51.924;21.448;2024-02-23T06:00:10;97626.25;;;6.62;100.00
45357;BME280;31092;51.924;21.448;2024-02-23T06:02:37;97698.28;;;7.10;100.00
45357;BME280;31092;51.924;21.448;2024-02-23T06:05:03;97683.25;;;7.03;100.00
45357;BME280;31092;51.924;21.448;2024-02-23T06:07:29;97665.13;;;6.85;100.00
45357;BME280;31092;51.924;21.448;2024-02-23T06:09:55;97664.72;;;6.88;100.00
45357;BME280;31092;51.924;21.448;2024-02-23T06:12:22;97683.88;;;6.98;100.00
45357;BME280;31092;51.924;21.448;2024-02-23T06:14:47;97600.50;;;6.48;100.00
45357;BME280;31092;51.924;21.448;2024-02-23T06:17:13;97702.81;;;7.10;100.00
45357;BME280;31092;51.924;21.448;2024-02-23T06:19:38;97688.81;;;7.01;100.00
45357;BME280;31092;51.924;21.448;2024-02-23T06:22:04;97612.84;;;6.56;100.00
45357;BME280;31092;51.924;21.448;2024-02-23T06:24:30;97651.16;;;6.76;100.00
45357;BME280;31092;51.924;21.448;2024-02-23T06:26:55;97697.88;;;7.07;100.00
45357;BME280;31092;51.924;21.448;2024-02-23T06:29:23;97613.47;;;6.58;100.00
45357;BME280;31092;51.924;21.448;2024-02-23T06:31:48;97622.31;;;6.65;100.00
45357;BME280;31092;51.924;21.448;2024-02-23T06:34:15;97617.81;;;6.65;100.00
45357;BME280;31092;51.924;21.448;2024-02-23T06:36:41;97639.81;;;6.74;100.00
45357;BME280;31092;51.924;21.448;2024-02-23T06:39:07;97638.78;;;6.68;100.00
45357;BME280;31092;51.924;21.448;2024-02-23T06:41:33;97626.25;;;6.69;100.00
45357;BME280;31092;51.924;21.448;2024-02-23T06:43:59;97706.72;;;7.20;100.00
45357;BME280;31092;51.924;21.448;2024-02-23T06:46:25;97715.16;;;7.17;100.00
45357;BME280;31092;51.924;21.448;2024-02-23T06:48:51;97627.66;;;6.71;100.00
45357;BME280;31092;51.924;21.448;2024-02-23T06:51:16;97613.69;;;6.63;100.00
45357;BME280;31092;51.924;21.448;2024-02-23T06:53:42;97618.63;;;6.66;100.00
45357;BME280;31092;51.924;21.448;2024-02-23T06:56:07;97697.47;;;7.16;100.00
45357;BME280;31092;51.924;21.448;2024-02-23T06:58:33;97599.69;;;6.54;100.00
45357;BME280;31092;51.924;21.448;2024-02-23T07:00:58;97631.16;;;6.72;100.00
45357;BME280;31092;51.924;21.448;2024-02-23T07:03:25;97696.66;;;7.16;100.00
45357;BME280;31092;51.924;21.448;2024-02-23T07:05:51;97610.38;;;6.61;100.00
45357;BME280;31092;51.924;21.448;2024-02-23T07:08:16;97708.38;;;7.28;100.00
45357;BME280;31092;51.924;21.448;2024-02-23T07:10:41;97643.94;;;6.83;100.00
45357;BME280;31092;51.924;21.448;2024-02-23T07:13:07;97730.00;;;7.33;100.00
45357;BME280;31092;51.924;21.448;2024-02-23T07:15:34;97717.84;;;7.31;100.00
45357;BME280;31092;51.924;21.448;2024-02-23T07:18:01;97641.69;;;6.80;100.00
45357;BME280;31092;51.924;21.448;2024-02-23T07:20:26;97678.53;;;7.05;100.00
45357;BME280;31092;51.924;21.448;2024-02-23T07:22:52;97649.69;;;6.80;100.00
45357;BME280;31092;51.924;21.448;2024-02-23T07:25:18;97715.16;;;7.31;100.00
45357;BME280;31092;51.924;21.448;2024-02-23T07:27:46;97727.09;;;7.35;100.00
45357;BME280;31092;51.924;21.448;2024-02-23T07:30:12;97647.84;;;6.87;100.00
45357;BME280;31092;51.924;21.448;2024-02-23T07:32:38;97710.00;;;7.29;100.00
45357;BME280;31092;51.924;21.448;2024-02-23T07:35:04;97666.78;;;6.99;100.00
45357;BME280;31092;51.924;21.448;2024-02-23T07:37:30;97657.72;;;7.00;100.00
45357;BME280;31092;51.924;21.448;2024-02-23T07:39:55;97659.16;;;6.96;100.00
45357;BME280;31092;51.924;21.448;2024-02-23T07:42:21;97725.06;;;7.37;100.00
45357;BME280;31092;51.924;21.448;2024-02-23T07:44:46;97664.91;;;6.93;100.00
45357;BME280;31092;51.924;21.448;2024-02-23T07:47:12;97661.66;;;6.98;100.00
45357;BME280;31092;51.924;21.448;2024-02-23T07:49:38;97724.44;;;7.35;100.00
45357;BME280;31092;51.924;21.448;2024-02-23T07:52:06;97672.13;;;7.06;100.00
45357;BME280;31092;51.924;21.448;2024-02-23T07:54:32;97661.84;;;6.96;100.00
45357;BME280;31092;51.924;21.448;2024-02-23T07:56:58;97696.22;;;7.19;100.00
45357;BME280;31092;51.924;21.448;2024-02-23T07:59:23;97744.19;;;7.54;100.00
45357;BME280;31092;51.924;21.448;2024-02-23T08:01:49;97705.91;;;7.27;100.00
45357;BME280;31092;51.924;21.448;2024-02-23T08:04:14;97594.56;;;6.66;100.00
45357;BME280;31092;51.924;21.448;2024-02-23T08:06:41;97749.53;;;7.60;100.00
45357;BME280;31092;51.924;21.448;2024-02-23T08:09:08;97748.53;;;7.61;100.00
45357;BME280;31092;51.924;21.448;2024-02-23T08:11:34;97683.84;;;7.25;100.00
45357;BME280;31092;51.924;21.448;2024-02-23T08:13:59;97630.13;;;6.93;100.00
45357;BME280;31092;51.924;21.448;2024-02-23T08:16:25;97719.25;;;7.47;100.00
45357;BME280;31092;51.924;21.448;2024-02-23T08:18:50;97754.06;;;7.73;100.00
45357;BME280;31092;51.924;21.448;2024-02-23T08:21:16;97754.28;;;7.65;100.00
45357;BME280;31092;51.924;21.448;2024-02-23T08:23:41;97619.03;;;6.83;100.00
45357;BME280;31092;51.924;21.448;2024-02-23T08:26:07;97722.56;;;7.42;100.00
45357;BME280;31092;51.924;21.448;2024-02-23T08:28:32;97759.03;;;7.63;100.00
45357;BME280;31092;51.924;21.448;2024-02-23T08:30:58;97749.53;;;7.60;100.00
45357;BME280;31092;51.924;21.448;2024-02-23T08:33:23;97675.81;;;7.18;100.00
45357;BME280;31092;51.924;21.448;2024-02-23T08:35:49;97738.00;;;7.60;100.00
45357;BME280;31092;51.924;21.448;2024-02-23T08:38:15;97676.66;;;7.25;100.00
45357;BME280;31092;51.924;21.448;2024-02-23T08:40:40;97773.63;;;7.74;100.00
45357;BME280;31092;51.924;21.448;2024-02-23T08:43:07;97766.44;;;7.67;100.00
45357;BME280;31092;51.924;21.448;2024-02-23T08:45:32;97700.56;;;7.20;100.00
45357;BME280;31092;51.924;21.448;2024-02-23T08:47:58;97759.03;;;7.63;100.00
45357;BME280;31092;51.924;21.448;2024-02-23T08:50:24;97699.91;;;7.18;100.00
45357;BME280;31092;51.924;21.448;2024-02-23T08:52:49;97710.00;;;7.29;100.00
45357;BME280;31092;51.924;21.448;2024-02-23T08:55:15;97704.69;;;7.23;100.00
45357;BME280;31092;51.924;21.448;2024-02-23T08:57:41;97757.78;;;7.59;100.00
45357;BME280;31092;51.924;21.448;2024-02-23T09:00:07;97755.72;;;7.67;100.00
45357;BME280;31092;51.924;21.448;2024-02-23T09:02:33;97709.59;;;7.39;100.00
45357;BME280;31092;51.924;21.448;2024-02-23T09:05:01;97787.44;;;7.90;100.00
45357;BME280;31092;51.924;21.448;2024-02-23T09:07:26;97763.31;;;7.77;100.00
45357;BME280;31092;51.924;21.448;2024-02-23T09:09:52;97788.66;;;7.88;100.00
45357;BME280;31092;51.924;21.448;2024-02-23T09:12:18;97699.50;;;7.28;100.00
45357;BME280;31092;51.924;21.448;2024-02-23T09:14:44;97784.34;;;7.87;100.00
45357;BME280;31092;51.924;21.448;2024-02-23T09:17:10;97713.09;;;7.39;100.00
45357;BME280;31092;51.924;21.448;2024-02-23T09:19:36;97731.63;;;7.48;100.00
45357;BME280;31092;51.924;21.448;2024-02-23T09:22:02;97796.06;;;7.92;100.00
45357;BME280;31092;51.924;21.448;2024-02-23T09:24:28;97792.56;;;7.92;100.00
45357;BME280;31092;51.924;21.448;2024-02-23T09:26:54;97704.88;;;7.41;100.00
45357;BME280;31092;51.924;21.448;2024-02-23T09:29:20;97790.94;;;7.98;100.00
45357;BME280;31092;51.924;21.448;2024-02-23T09:31:46;97707.13;;;7.44;100.00
45357;BME280;31092;51.924;21.448;2024-02-23T09:34:12;97801.00;;;8.02;100.00
45357;BME280;31092;51.924;21.448;2024-02-23T09:36:38;97806.56;;;8.07;100.00
45357;BME280;31092;51.924;21.448;2024-02-23T09:39:03;97791.94;;;7.97;100.00
45357;BME280;31092;51.924;21.448;2024-02-23T09:41:30;97729.97;;;7.60;100.00
45357;BME280;31092;51.924;21.448;2024-02-23T09:43:59;97788.84;;;8.00;100.00
45357;BME280;31092;51.924;21.448;2024-02-23T09:46:26;97764.97;;;7.78;100.00
45357;BME280;31092;51.924;21.448;2024-02-23T09:48:53;97722.16;;;7.58;100.00
45357;BME280;31092;51.924;21.448;2024-02-23T09:51:20;97785.34;;;8.06;100.00
45357;BME280;31092;51.924;21.448;2024-02-23T09:53:49;97800.59;;;8.12;100.00
45357;BME280;31092;51.924;21.448;2024-02-23T09:56:16;97811.09;;;8.13;100.00
45357;BME280;31092;51.924;21.448;2024-02-23T09:58:43;97804.91;;;8.06;100.00
45357;BME280;31092;51.924;21.448;2024-02-23T10:01:10;97817.69;;;8.18;100.00
45357;BME280;31092;51.924;21.448;2024-02-23T10:03:37;97748.28;;;7.76;100.00
45357;BME280;31092;51.924;21.448;2024-02-23T10:06:04;97816.84;;;8.17;100.00
45357;BME280;31092;51.924;21.448;2024-02-23T10:08:30;97816.63;;;8.25;100.00
45357;BME280;31092;51.924;21.448;2024-02-23T10:10:56;97796.03;;;8.19;100.00
45357;BME280;31092;51.924;21.448;2024-02-23T10:13:23;97792.31;;;8.20;100.00
45357;BME280;31092;51.924;21.448;2024-02-23T10:15:51;97787.13;;;8.25;100.00
45357;BME280;31092;51.924;21.448;2024-02-23T10:18:18;97807.13;;;8.43;100.00
45357;BME280;31092;51.924;21.448;2024-02-23T10:20:43;97824.47;;;8.47;100.00
45357;BME280;31092;51.924;21.448;2024-02-23T10:23:09;97826.69;;;8.50;100.00
45357;BME280;31092;51.924;21.448;2024-02-23T10:25:36;97825.69;;;8.51;100.00
45357;BME280;31092;51.924;21.448;2024-02-23T10:28:03;97815.16;;;8.43;100.00
45357;BME280;31092;51.924;21.448;2024-02-23T10:30:28;97828.75;;;8.54;100.00
45357;BME280;31092;51.924;21.448;2024-02-23T10:32:55;97788.38;;;8.29;100.00
45357;BME280;31092;51.924;21.448;2024-02-23T10:35:22;97810.19;;;8.46;100.00
45357;BME280;31092;51.924;21.448;2024-02-23T10:37:49;97747.16;;;8.10;100.00
45357;BME280;31092;51.924;21.448;2024-02-23T10:40:19;97803.00;;;8.47;100.00
45357;BME280;31092;51.924;21.448;2024-02-23T10:42:47;97814.94;;;8.57;100.00
45357;BME280;31092;51.924;21.448;2024-02-23T10:45:17;97751.47;;;8.18;100.00
45357;BME280;31092;51.924;21.448;2024-02-23T10:47:45;97832.66;;;8.65;100.00
45357;BME280;31092;51.924;21.448;2024-02-23T10:50:12;97797.44;;;8.42;100.00
45357;BME280;31092;51.924;21.448;2024-02-23T10:52:42;97771.25;;;8.24;100.00
45357;BME280;31092;51.924;21.448;2024-02-23T10:55:12;97826.25;;;8.59;100.00
45357;BME280;31092;51.924;21.448;2024-02-23T10:57:38;97752.53;;;8.10;100.00
45357;BME280;31092;51.924;21.448;2024-02-23T11:00:05;97843.56;;;8.63;100.00
45357;BME280;31092;51.924;21.448;2024-02-23T11:02:41;97778.09;;;8.20;100.00
45357;BME280;31092;51.924;21.448;2024-02-23T11:05:09;97816.22;;;8.42;100.00
45357;BME280;31092;51.924;21.448;2024-02-23T11:07:40;97850.22;;;8.61;100.00
45357;BME280;31092;51.924;21.448;2024-02-23T11:10:07;97846.09;;;8.58;100.00
45357;BME280;31092;51.924;21.448;2024-02-23T11:12:35;97862.16;;;8.65;100.00
45357;BME280;31092;51.924;21.448;2024-02-23T11:15:01;97835.75;;;8.55;100.00
45357;BME280;31092;51.924;21.448;2024-02-23T11:17:29;97850.22;;;8.61;100.00
45357;BME280;31092;51.924;21.448;2024-02-23T11:19:56;97785.47;;;8.24;100.00
45357;BME280;31092;51.924;21.448;2024-02-23T11:22:26;97763.66;;;8.07;100.00
45357;BME280;31092;51.924;21.448;2024-02-23T11:24:52;97872.25;;;8.70;100.00
45357;BME280;31092;51.924;21.448;2024-02-23T11:27:17;97785.72;;;8.16;100.00
45357;BME280;31092;51.924;21.448;2024-02-23T11:29:45;97808.56;;;8.32;100.00
45357;BME280;31092;51.924;21.448;2024-02-23T11:32:15;97854.31;;;8.63;100.00
45357;BME280;31092;51.924;21.448;2024-02-23T11:34:41;97881.13;;;8.70;100.00
45357;BME280;31092;51.924;21.448;2024-02-23T11:37:09;97877.41;;;8.71;100.00
45357;BME280;31092;51.924;21.448;2024-02-23T11:39:37;97792.94;;;8.22;100.00
45357;BME280;31092;51.924;21.448;2024-02-23T11:42:05;97876.38;;;8.72;100.00
45357;BME280;31092;51.924;21.448;2024-02-23T11:44:31;97858.44;;;8.59;100.00
45357;BME280;31092;51.924;21.448;2024-02-23T11:46:58;97809.38;;;8.32;100.00
45357;BME280;31092;51.924;21.448;2024-02-23T11:49:28;97874.13;;;8.69;100.00
45357;BME280;31092;51.924;21.448;2024-02-23T11:51:54;97897.81;;;8.79;100.00
45357;BME280;31092;51.924;21.448;2024-02-23T11:54:20;97811.47;;;8.30;100.00
45357;BME280;31092;51.924;21.448;2024-02-23T11:56:47;97786.78;;;8.08;100.00
45357;BME280;31092;51.924;21.448;2024-02-23T11:59:15;97824.66;;;8.32;100.00
45357;BME280;31092;51.924;21.448;2024-02-23T12:01:41;97837.66;;;8.35;100.00
45357;BME280;31092;51.924;21.448;2024-02-23T12:04:07;97905.03;;;8.78;100.00
45357;BME280;31092;51.924;21.448;2024-02-23T12:06:33;97897.63;;;8.74;100.00
45357;BME280;31092;51.924;21.448;2024-02-23T12:09:00;97835.19;;;8.33;100.00
45357;BME280;31092;51.924;21.448;2024-02-23T12:11:26;97891.44;;;8.67;100.00
45357;BME280;31092;51.924;21.448;2024-02-23T12:13:52;97846.53;;;8.42;100.00
45357;BME280;31092;51.924;21.448;2024-02-23T12:16:18;97848.41;;;8.42;100.00
45357;BME280;31092;51.924;21.448;2024-02-23T12:18:52;97916.38;;;8.80;100.00
45357;BME280;31092;51.924;21.448;2024-02-23T12:21:19;97906.50;;;8.74;100.00
45357;BME280;31092;51.924;21.448;2024-02-23T12:23:45;97914.53;;;8.81;100.00
45357;BME280;31092;51.924;21.448;2024-02-23T12:26:13;97863.22;;;8.57;100.00
45357;BME280;31092;51.924;21.448;2024-02-23T12:28:39;97880.31;;;8.70;100.00
45357;BME280;31092;51.924;21.448;2024-02-23T12:31:06;97890.19;;;8.76;100.00
45357;BME280;31092;51.924;21.448;2024-02-23T12:33:33;97916.34;;;8.94;100.00
45357;BME280;31092;51.924;21.448;2024-02-23T12:36:06;97892.66;;;8.77;100.00
45357;BME280;31092;51.924;21.448;2024-02-23T12:38:33;97877.84;;;8.68;100.00
45357;BME280;31092;51.924;21.448;2024-02-23T12:41:00;97908.91;;;8.89;100.00
45357;BME280;31092;51.924;21.448;2024-02-23T12:43:26;97867.09;;;8.68;100.00
45357;BME280;31092;51.924;21.448;2024-02-23T12:45:55;97909.53;;;8.98;100.00